Jard de Palmarejo, Puerto Rico
Current Conditions -  °F | °C
As of 10:56 AM on Thursday 25 Dec 2014 (Local Time) from TJSJ Reporting Station
Light Rain Light Rain  
Wind Chill: 80°   Ceiling: 4800
Heat Index: 84°   Visibility: 10mi
Dew Point: 73°   Wind: 13mph
Humidity: 79%   Direction: 50°NE
Pressure: 30.12"   Gusts: NA
Location:  18.3747°N, 65.9126°W
Report Text: TJSJ 251456Z 05011KT 10SM -RA SCT026 SCT033 BKN048 27/23 A3012 RMK AO2 RAB51 SLP197 P0000 60001 T02670228 51010
Loading
Personal Weather Stations






























Interactive Weather Map New forecast layout! Learn more

10-Day Weather Forecast

Advertisements
Track Severe Weather on mobile